Goshen, VA (24439)

5:44 PM EDT on August 22, 2017 (GMT -0400)
Mountain Meadow Farm | | Change Station

Elev 1532 ft 38.05 °N, 79.48 °W | Updated 11 minutes ago

Partly Cloudy
Partly Cloudy
88.4 °F
Feels Like 91 °F
N
3.0
Wind Variable Wind from NNE
Gusts 12.0 mph

Today
High -- | Low -- °F
--% Chance of Precip.
Yesterday
High -- | Low -- °F
Precip. -- in
Pressure 29.93 in
Visibility 10.0 miles
Clouds Scattered Clouds 6000 ft
Heat Index 91 °F
Dew Point 66 °F
Humidity 47%
Rainfall 0.00 in
Snow Depth Not available.
6:39 AM 8:01 PM
New Moon, 2% visible
METAR KSHD 222135Z AUTO 20010G15KT 10SM SCT060 32/19 A2993 RMK AO2 T03200193
Pressure 29.93 in
Visibility 10.0 miles
Clouds Scattered Clouds 6000 ft
Heat Index 91 °F
Dew Point 66 °F
Humidity 47%
Rainfall 0.00 in
Snow Depth Not available.
6:39 AM 8:01 PM
New Moon, 2% visible
METAR KSHD 222135Z AUTO 20010G15KT 10SM SCT060 32/19 A2993 RMK AO2 T03200193

Get Severe Weather Alerts

Thanks for signing up!

Be on the lookout for a verification email in your inbox.

You'll start receiving the daily forecast at 6 AM.

×

10-Day Weather Forecast

Almanac

Astronomy

Aug. 22, 2017 Rise Set
Actual Time
Civil Twilight
Nautical Twilight
Astronomical Twilight
Moon
Length of Visible Light
Length of Day
Tomorrow will be .
, % of the Moon is Illuminated

Today's Extremes

State Highs State Lows

Community

WunderPhotos

Category 6

Welcome to Category 6. This is the collective home for Weather Underground's featured writeups by Dr. Jeff Masters (right), Bob Henson (left), Chris Burt, and other regular contributors.

Nearby

Air Quality

  Air Quality AQ Index Pollutant
Not available.

Snow Depth

Station Depth Elevation

Earthquake Activity

City Distance Mag. Time & Date
Minimum magnitude displayed is 2.5.

Coastal Water Temperatures

Place Temperature

Stations

Nearby Weather Stations

Station Location Temp. Windchill Dew Point Humidity Wind Precip. Elev Updated Type
                   

Watches & Warnings

There are currently no watches in effect.